sensor_id;sensor_type;location;lat;lon;timestamp;P1;durP1;ratioP1;P2;durP2;ratioP2
20639;SDS011;10479;53.524;9.846;2022-10-31T00:00:00;60.90;;;28.48;;
20639;SDS011;10479;53.524;9.846;2022-10-31T00:02:46;47.97;;;25.75;;
20639;SDS011;10479;53.524;9.846;2022-10-31T00:05:31;42.50;;;22.00;;
20639;SDS011;10479;53.524;9.846;2022-10-31T00:08:03;44.60;;;21.90;;
20639;SDS011;10479;53.524;9.846;2022-10-31T00:10:49;31.92;;;17.20;;
20639;SDS011;10479;53.524;9.846;2022-10-31T00:13:34;29.63;;;15.80;;
20639;SDS011;10479;53.524;9.846;2022-10-31T00:16:21;38.97;;;22.33;;
20639;SDS011;10479;53.524;9.846;2022-10-31T00:19:08;53.40;;;27.23;;
20639;SDS011;10479;53.524;9.846;2022-10-31T00:25:15;49.17;;;21.70;;
20639;SDS011;10479;53.524;9.846;2022-10-31T00:28:06;31.00;;;14.60;;
20639;SDS011;10479;53.524;9.846;2022-10-31T00:31:10;28.58;;;12.23;;
20639;SDS011;10479;53.524;9.846;2022-10-31T00:33:42;70.00;;;19.95;;
20639;SDS011;10479;53.524;9.846;2022-10-31T00:36:13;36.30;;;17.50;;
20639;SDS011;10479;53.524;9.846;2022-10-31T00:38:59;40.97;;;16.67;;
20639;SDS011;10479;53.524;9.846;2022-10-31T00:41:45;39.47;;;19.92;;
20639;SDS011;10479;53.524;9.846;2022-10-31T00:44:30;127.63;;;34.05;;
20639;SDS011;10479;53.524;9.846;2022-10-31T00:47:16;101.93;;;28.58;;
20639;SDS011;10479;53.524;9.846;2022-10-31T00:49:47;45.45;;;21.88;;
20639;SDS011;10479;53.524;9.846;2022-10-31T00:52:15;158.65;;;34.70;;
20639;SDS011;10479;53.524;9.846;2022-10-31T00:55:00;40.95;;;23.42;;
20639;SDS011;10479;53.524;9.846;2022-10-31T00:57:46;59.35;;;30.23;;
20639;SDS011;10479;53.524;9.846;2022-10-31T01:00:14;56.67;;;29.88;;
20639;SDS011;10479;53.524;9.846;2022-10-31T01:02:50;578.38;;;43.47;;
20639;SDS011;10479;53.524;9.846;2022-10-31T01:05:18;516.05;;;43.67;;
20639;SDS011;10479;53.524;9.846;2022-10-31T01:07:50;303.13;;;28.02;;
20639;SDS011;10479;53.524;9.846;2022-10-31T01:10:29;106.22;;;27.77;;
20639;SDS011;10479;53.524;9.846;2022-10-31T01:13:04;171.07;;;29.00;;
20639;SDS011;10479;53.524;9.846;2022-10-31T01:15:37;229.48;;;27.65;;
20639;SDS011;10479;53.524;9.846;2022-10-31T01:18:23;141.38;;;28.13;;
20639;SDS011;10479;53.524;9.846;2022-10-31T01:20:57;79.47;;;26.42;;
20639;SDS011;10479;53.524;9.846;2022-10-31T01:23:45;55.47;;;26.85;;
20639;SDS011;10479;53.524;9.846;2022-10-31T01:26:31;48.25;;;26.20;;
20639;SDS011;10479;53.524;9.846;2022-10-31T01:29:08;48.05;;;25.17;;
20639;SDS011;10479;53.524;9.846;2022-10-31T01:31:53;59.28;;;28.40;;
20639;SDS011;10479;53.524;9.846;2022-10-31T01:34:39;58.10;;;30.60;;
20639;SDS011;10479;53.524;9.846;2022-10-31T01:37:13;68.78;;;33.70;;
20639;SDS011;10479;53.524;9.846;2022-10-31T01:39:59;72.88;;;33.72;;
20639;SDS011;10479;53.524;9.846;2022-10-31T01:42:44;69.45;;;32.28;;
20639;SDS011;10479;53.524;9.846;2022-10-31T01:45:19;98.38;;;32.90;;
20639;SDS011;10479;53.524;9.846;2022-10-31T01:48:04;92.25;;;34.20;;
20639;SDS011;10479;53.524;9.846;2022-10-31T01:50:51;78.60;;;34.03;;
20639;SDS011;10479;53.524;9.846;2022-10-31T01:53:38;91.00;;;34.58;;
20639;SDS011;10479;53.524;9.846;2022-10-31T01:56:16;84.20;;;31.95;;
20639;SDS011;10479;53.524;9.846;2022-10-31T01:58:57;85.18;;;37.28;;
20639;SDS011;10479;53.524;9.846;2022-10-31T02:01:33;89.78;;;37.53;;
20639;SDS011;10479;53.524;9.846;2022-10-31T02:04:19;64.85;;;33.95;;
20639;SDS011;10479;53.524;9.846;2022-10-31T02:06:58;89.10;;;37.05;;
20639;SDS011;10479;53.524;9.846;2022-10-31T02:09:47;88.55;;;34.90;;
20639;SDS011;10479;53.524;9.846;2022-10-31T02:12:34;106.63;;;40.20;;
20639;SDS011;10479;53.524;9.846;2022-10-31T02:15:23;102.15;;;41.03;;
20639;SDS011;10479;53.524;9.846;2022-10-31T02:18:08;101.53;;;39.03;;
20639;SDS011;10479;53.524;9.846;2022-10-31T02:21:18;120.07;;;48.22;;
20639;SDS011;10479;53.524;9.846;2022-10-31T02:30:24;325.30;;;43.15;;
20639;SDS011;10479;53.524;9.846;2022-10-31T02:39:26;129.73;;;39.28;;
20639;SDS011;10479;53.524;9.846;2022-10-31T02:42:26;309.52;;;45.88;;
20639;SDS011;10479;53.524;9.846;2022-10-31T02:45:22;252.50;;;55.78;;
20639;SDS011;10479;53.524;9.846;2022-10-31T02:48:18;298.42;;;49.97;;
20639;SDS011;10479;53.524;9.846;2022-10-31T02:51:05;262.15;;;56.55;;
20639;SDS011;10479;53.524;9.846;2022-10-31T02:53:50;416.15;;;50.28;;
20639;SDS011;10479;53.524;9.846;2022-10-31T02:56:36;434.52;;;50.90;;
20639;SDS011;10479;53.524;9.846;2022-10-31T02:59:15;339.00;;;45.80;;
20639;SDS011;10479;53.524;9.846;2022-10-31T03:01:51;372.42;;;48.20;;
20639;SDS011;10479;53.524;9.846;2022-10-31T03:07:44;371.15;;;51.58;;
20639;SDS011;10479;53.524;9.846;2022-10-31T03:10:54;488.60;;;71.95;;
20639;SDS011;10479;53.524;9.846;2022-10-31T03:19:33;442.27;;;59.15;;
20639;SDS011;10479;53.524;9.846;2022-10-31T03:22:23;201.93;;;52.92;;
20639;SDS011;10479;53.524;9.846;2022-10-31T03:25:10;455.25;;;60.38;;
20639;SDS011;10479;53.524;9.846;2022-10-31T03:27:57;459.20;;;62.53;;
20639;SDS011;10479;53.524;9.846;2022-10-31T03:30:38;452.13;;;59.90;;
20639;SDS011;10479;53.524;9.846;2022-10-31T03:33:16;450.00;;;53.53;;
20639;SDS011;10479;53.524;9.846;2022-10-31T03:36:04;493.55;;;53.38;;
20639;SDS011;10479;53.524;9.846;2022-10-31T03:38:51;475.60;;;58.60;;
20639;SDS011;10479;53.524;9.846;2022-10-31T03:41:38;451.23;;;52.40;;
20639;SDS011;10479;53.524;9.846;2022-10-31T03:44:17;476.63;;;53.10;;
20639;SDS011;10479;53.524;9.846;2022-10-31T03:47:04;537.15;;;56.60;;
20639;SDS011;10479;53.524;9.846;2022-10-31T03:49:36;586.87;;;61.20;;
20639;SDS011;10479;53.524;9.846;2022-10-31T03:55:32;511.65;;;71.22;;
20639;SDS011;10479;53.524;9.846;2022-10-31T03:58:21;724.78;;;76.43;;
20639;SDS011;10479;53.524;9.846;2022-10-31T04:01:11;528.35;;;57.20;;
20639;SDS011;10479;53.524;9.846;2022-10-31T04:03:54;632.50;;;66.45;;
20639;SDS011;10479;53.524;9.846;2022-10-31T04:06:40;563.53;;;64.10;;
20639;SDS011;10479;53.524;9.846;2022-10-31T04:09:27;536.90;;;62.72;;
20639;SDS011;10479;53.524;9.846;2022-10-31T04:12:14;362.23;;;51.58;;
20639;SDS011;10479;53.524;9.846;2022-10-31T04:15:00;443.13;;;56.17;;
20639;SDS011;10479;53.524;9.846;2022-10-31T04:17:48;413.48;;;55.17;;
20639;SDS011;10479;53.524;9.846;2022-10-31T04:20:36;448.40;;;56.03;;
20639;SDS011;10479;53.524;9.846;2022-10-31T04:23:24;342.92;;;51.80;;
20639;SDS011;10479;53.524;9.846;2022-10-31T04:26:03;405.65;;;61.33;;
20639;SDS011;10479;53.524;9.846;2022-10-31T04:28:49;333.77;;;46.85;;
20639;SDS011;10479;53.524;9.846;2022-10-31T04:31:34;343.70;;;50.83;;
20639;SDS011;10479;53.524;9.846;2022-10-31T04:34:10;298.02;;;51.90;;
20639;SDS011;10479;53.524;9.846;2022-10-31T04:36:42;305.07;;;58.47;;
20639;SDS011;10479;53.524;9.846;2022-10-31T04:39:17;299.83;;;56.72;;
20639;SDS011;10479;53.524;9.846;2022-10-31T04:41:59;361.52;;;62.78;;
20639;SDS011;10479;53.524;9.846;2022-10-31T04:44:45;418.67;;;69.32;;
20639;SDS011;10479;53.524;9.846;2022-10-31T04:47:15;479.63;;;74.90;;
20639;SDS011;10479;53.524;9.846;2022-10-31T04:50:01;536.78;;;87.65;;
20639;SDS011;10479;53.524;9.846;2022-10-31T04:52:46;468.92;;;67.78;;
20639;SDS011;10479;53.524;9.846;2022-10-31T04:55:32;486.08;;;72.90;;
20639;SDS011;10479;53.524;9.846;2022-10-31T04:58:17;465.60;;;68.90;;
20639;SDS011;10479;53.524;9.846;2022-10-31T05:01:03;509.95;;;77.05;;
20639;SDS011;10479;53.524;9.846;2022-10-31T05:03:48;449.45;;;69.00;;
20639;SDS011;10479;53.524;9.846;2022-10-31T05:06:33;549.92;;;75.57;;
20639;SDS011;10479;53.524;9.846;2022-10-31T05:09:07;587.10;;;89.22;;
20639;SDS011;10479;53.524;9.846;2022-10-31T05:11:50;490.83;;;76.22;;
20639;SDS011;10479;53.524;9.846;2022-10-31T05:14:36;477.50;;;71.43;;
20639;SDS011;10479;53.524;9.846;2022-10-31T05:17:21;634.85;;;90.90;;
20639;SDS011;10479;53.524;9.846;2022-10-31T05:20:07;498.00;;;75.20;;
20639;SDS011;10479;53.524;9.846;2022-10-31T05:22:53;563.75;;;82.57;;
20639;SDS011;10479;53.524;9.846;2022-10-31T05:25:39;585.88;;;86.85;;
20639;SDS011;10479;53.524;9.846;2022-10-31T05:28:25;472.83;;;68.18;;
20639;SDS011;10479;53.524;9.846;2022-10-31T05:31:11;395.67;;;61.75;;
20639;SDS011;10479;53.524;9.846;2022-10-31T05:33:56;439.50;;;68.82;;
20639;SDS011;10479;53.524;9.846;2022-10-31T05:36:22;409.77;;;68.70;;
20639;SDS011;10479;53.524;9.846;2022-10-31T05:39:08;918.53;;;117.22;;
20639;SDS011;10479;53.524;9.846;2022-10-31T05:41:46;505.70;;;77.05;;
20639;SDS011;10479;53.524;9.846;2022-10-31T05:44:32;517.03;;;71.53;;
20639;SDS011;10479;53.524;9.846;2022-10-31T05:47:02;636.03;;;93.55;;
20639;SDS011;10479;53.524;9.846;2022-10-31T05:49:42;481.40;;;67.75;;
20639;SDS011;10479;53.524;9.846;2022-10-31T05:52:28;398.75;;;63.15;;
20639;SDS011;10479;53.524;9.846;2022-10-31T05:55:13;433.13;;;65.13;;
20639;SDS011;10479;53.524;9.846;2022-10-31T05:57:58;460.73;;;72.20;;
20639;SDS011;10479;53.524;9.846;2022-10-31T06:00:36;398.73;;;60.35;;
20639;SDS011;10479;53.524;9.846;2022-10-31T06:03:06;472.35;;;73.45;;
20639;SDS011;10479;53.524;9.846;2022-10-31T06:05:52;346.05;;;59.63;;
20639;SDS011;10479;53.524;9.846;2022-10-31T06:08:33;516.78;;;76.10;;
20639;SDS011;10479;53.524;9.846;2022-10-31T06:11:18;407.55;;;65.50;;
20639;SDS011;10479;53.524;9.846;2022-10-31T06:13:58;442.55;;;64.30;;
20639;SDS011;10479;53.524;9.846;2022-10-31T06:16:43;437.27;;;65.30;;
20639;SDS011;10479;53.524;9.846;2022-10-31T06:19:28;522.95;;;83.00;;
20639;SDS011;10479;53.524;9.846;2022-10-31T06:22:14;388.67;;;62.55;;
20639;SDS011;10479;53.524;9.846;2022-10-31T06:24:59;683.85;;;97.93;;
20639;SDS011;10479;53.524;9.846;2022-10-31T06:27:45;302.05;;;56.53;;
20639;SDS011;10479;53.524;9.846;2022-10-31T06:30:30;525.78;;;76.18;;
20639;SDS011;10479;53.524;9.846;2022-10-31T06:33:15;381.48;;;67.68;;
20639;SDS011;10479;53.524;9.846;2022-10-31T06:36:01;491.35;;;81.15;;
20639;SDS011;10479;53.524;9.846;2022-10-31T06:38:46;979.72;;;118.93;;
20639;SDS011;10479;53.524;9.846;2022-10-31T06:41:26;418.30;;;72.75;;
20639;SDS011;10479;53.524;9.846;2022-10-31T06:44:11;512.65;;;84.68;;
20639;SDS011;10479;53.524;9.846;2022-10-31T06:46:56;549.42;;;70.05;;
20639;SDS011;10479;53.524;9.846;2022-10-31T06:49:42;325.45;;;58.15;;
20639;SDS011;10479;53.524;9.846;2022-10-31T06:52:27;238.02;;;57.60;;
20639;SDS011;10479;53.524;9.846;2022-10-31T06:55:12;259.08;;;52.67;;
20639;SDS011;10479;53.524;9.846;2022-10-31T06:57:58;221.73;;;53.47;;
20639;SDS011;10479;53.524;9.846;2022-10-31T07:00:44;335.15;;;58.85;;
20639;SDS011;10479;53.524;9.846;2022-10-31T07:03:30;414.75;;;60.30;;
20639;SDS011;10479;53.524;9.846;2022-10-31T07:06:11;498.23;;;73.80;;
20639;SDS011;10479;53.524;9.846;2022-10-31T07:08:52;545.63;;;74.93;;
20639;SDS011;10479;53.524;9.846;2022-10-31T07:11:38;345.20;;;54.97;;
20639;SDS011;10479;53.524;9.846;2022-10-31T07:14:23;489.20;;;71.72;;
20639;SDS011;10479;53.524;9.846;2022-10-31T07:17:07;445.85;;;59.78;;
20639;SDS011;10479;53.524;9.846;2022-10-31T07:19:53;610.38;;;69.22;;
20639;SDS011;10479;53.524;9.846;2022-10-31T07:22:38;493.92;;;59.17;;
20639;SDS011;10479;53.524;9.846;2022-10-31T07:25:16;339.80;;;50.45;;
20639;SDS011;10479;53.524;9.846;2022-10-31T07:28:01;480.58;;;66.70;;
20639;SDS011;10479;53.524;9.846;2022-10-31T07:30:39;418.27;;;52.63;;
20639;SDS011;10479;53.524;9.846;2022-10-31T07:33:23;450.27;;;54.58;;
20639;SDS011;10479;53.524;9.846;2022-10-31T07:36:02;274.33;;;46.03;;
20639;SDS011;10479;53.524;9.846;2022-10-31T07:38:48;411.15;;;54.50;;
20639;SDS011;10479;53.524;9.846;2022-10-31T07:41:36;350.83;;;46.60;;
20639;SDS011;10479;53.524;9.846;2022-10-31T07:44:22;435.58;;;60.35;;
20639;SDS011;10479;53.524;9.846;2022-10-31T07:47:08;362.33;;;48.13;;
20639;SDS011;10479;53.524;9.846;2022-10-31T07:49:51;436.67;;;58.28;;
20639;SDS011;10479;53.524;9.846;2022-10-31T07:52:25;452.50;;;61.70;;
20639;SDS011;10479;53.524;9.846;2022-10-31T07:55:11;324.80;;;55.08;;
20639;SDS011;10479;53.524;9.846;2022-10-31T07:57:41;454.38;;;61.65;;
20639;SDS011;10479;53.524;9.846;2022-10-31T08:00:28;407.95;;;54.47;;
20639;SDS011;10479;53.524;9.846;2022-10-31T08:03:17;386.98;;;46.33;;
20639;SDS011;10479;53.524;9.846;2022-10-31T08:06:04;406.42;;;55.35;;
20639;SDS011;10479;53.524;9.846;2022-10-31T08:08:50;426.08;;;57.40;;
20639;SDS011;10479;53.524;9.846;2022-10-31T08:11:37;345.30;;;45.75;;
20639;SDS011;10479;53.524;9.846;2022-10-31T08:14:23;301.55;;;45.08;;
20639;SDS011;10479;53.524;9.846;2022-10-31T08:17:08;402.27;;;51.95;;
20639;SDS011;10479;53.524;9.846;2022-10-31T08:19:55;298.92;;;37.50;;
20639;SDS011;10479;53.524;9.846;2022-10-31T08:22:40;169.57;;;33.03;;
20639;SDS011;10479;53.524;9.846;2022-10-31T08:25:28;276.27;;;47.40;;
20639;SDS011;10479;53.524;9.846;2022-10-31T08:28:15;159.30;;;37.30;;
20639;SDS011;10479;53.524;9.846;2022-10-31T08:31:01;277.45;;;42.92;;
20639;SDS011;10479;53.524;9.846;2022-10-31T08:33:31;221.23;;;37.25;;
20639;SDS011;10479;53.524;9.846;2022-10-31T08:36:20;270.73;;;42.13;;
20639;SDS011;10479;53.524;9.846;2022-10-31T08:38:59;261.85;;;41.20;;
20639;SDS011;10479;53.524;9.846;2022-10-31T08:41:41;406.27;;;49.70;;
20639;SDS011;10479;53.524;9.846;2022-10-31T08:44:11;245.55;;;34.70;;
20639;SDS011;10479;53.524;9.846;2022-10-31T08:46:44;314.77;;;46.72;;
20639;SDS011;10479;53.524;9.846;2022-10-31T08:49:29;247.18;;;45.10;;
20639;SDS011;10479;53.524;9.846;2022-10-31T08:52:00;154.80;;;37.15;;
20639;SDS011;10479;53.524;9.846;2022-10-31T08:54:46;283.38;;;44.75;;
20639;SDS011;10479;53.524;9.846;2022-10-31T08:57:20;273.80;;;48.03;;
20639;SDS011;10479;53.524;9.846;2022-10-31T09:00:06;280.23;;;45.85;;
20639;SDS011;10479;53.524;9.846;2022-10-31T09:02:41;317.60;;;49.78;;
20639;SDS011;10479;53.524;9.846;2022-10-31T09:05:27;457.42;;;60.47;;
20639;SDS011;10479;53.524;9.846;2022-10-31T09:08:05;185.48;;;36.25;;
20639;SDS011;10479;53.524;9.846;2022-10-31T09:10:45;195.02;;;30.60;;
20639;SDS011;10479;53.524;9.846;2022-10-31T09:13:32;215.57;;;39.13;;
20639;SDS011;10479;53.524;9.846;2022-10-31T09:16:17;141.30;;;35.80;;
20639;SDS011;10479;53.524;9.846;2022-10-31T09:19:03;349.65;;;47.20;;
20639;SDS011;10479;53.524;9.846;2022-10-31T09:21:51;387.33;;;53.13;;
20639;SDS011;10479;53.524;9.846;2022-10-31T09:24:38;582.15;;;71.30;;
20639;SDS011;10479;53.524;9.846;2022-10-31T09:27:25;211.10;;;43.22;;
20639;SDS011;10479;53.524;9.846;2022-10-31T09:30:14;228.68;;;40.97;;
20639;SDS011;10479;53.524;9.846;2022-10-31T09:33:01;423.20;;;59.90;;
20639;SDS011;10479;53.524;9.846;2022-10-31T09:35:49;168.68;;;36.20;;
20639;SDS011;10479;53.524;9.846;2022-10-31T09:38:35;153.02;;;36.95;;
20639;SDS011;10479;53.524;9.846;2022-10-31T09:46:52;249.45;;;44.17;;
20639;SDS011;10479;53.524;9.846;2022-10-31T09:52:53;159.95;;;38.92;;
20639;SDS011;10479;53.524;9.846;2022-10-31T09:55:47;638.22;;;76.97;;
20639;SDS011;10479;53.524;9.846;2022-10-31T09:58:29;456.55;;;60.55;;
20639;SDS011;10479;53.524;9.846;2022-10-31T10:07:12;163.55;;;40.25;;
20639;SDS011;10479;53.524;9.846;2022-10-31T10:10:09;145.07;;;34.47;;
20639;SDS011;10479;53.524;9.846;2022-10-31T10:19:21;198.93;;;40.43;;
20639;SDS011;10479;53.524;9.846;2022-10-31T10:22:13;115.07;;;36.17;;
20639;SDS011;10479;53.524;9.846;2022-10-31T10:25:16;126.68;;;34.78;;
20639;SDS011;10479;53.524;9.846;2022-10-31T10:31:15;496.52;;;61.92;;
20639;SDS011;10479;53.524;9.846;2022-10-31T10:34:07;163.77;;;40.50;;
20639;SDS011;10479;53.524;9.846;2022-10-31T10:37:00;206.75;;;43.17;;
20639;SDS011;10479;53.524;9.846;2022-10-31T10:39:52;344.33;;;55.58;;
20639;SDS011;10479;53.524;9.846;2022-10-31T10:42:41;343.75;;;52.85;;
20639;SDS011;10479;53.524;9.846;2022-10-31T10:45:35;207.20;;;46.97;;
20639;SDS011;10479;53.524;9.846;2022-10-31T10:51:22;156.52;;;39.33;;
20639;SDS011;10479;53.524;9.846;2022-10-31T10:57:06;166.27;;;39.72;;
20639;SDS011;10479;53.524;9.846;2022-10-31T11:00:21;132.60;;;31.85;;
20639;SDS011;10479;53.524;9.846;2022-10-31T11:02:58;180.50;;;36.47;;
20639;SDS011;10479;53.524;9.846;2022-10-31T11:05:51;116.05;;;31.33;;
20639;SDS011;10479;53.524;9.846;2022-10-31T11:08:41;120.28;;;28.23;;
20639;SDS011;10479;53.524;9.846;2022-10-31T11:11:24;111.53;;;28.35;;
20639;SDS011;10479;53.524;9.846;2022-10-31T11:14:13;101.15;;;27.95;;
20639;SDS011;10479;53.524;9.846;2022-10-31T11:17:08;89.03;;;24.70;;
20639;SDS011;10479;53.524;9.846;2022-10-31T11:23:18;60.42;;;19.73;;
20639;SDS011;10479;53.524;9.846;2022-10-31T11:28:42;65.45;;;21.02;;
20639;SDS011;10479;53.524;9.846;2022-10-31T11:31:27;68.82;;;23.42;;
20639;SDS011;10479;53.524;9.846;2022-10-31T11:37:15;89.15;;;28.10;;
20639;SDS011;10479;53.524;9.846;2022-10-31T11:39:45;88.60;;;28.38;;
20639;SDS011;10479;53.524;9.846;2022-10-31T11:48:19;66.65;;;24.50;;
20639;SDS011;10479;53.524;9.846;2022-10-31T11:51:08;59.65;;;22.17;;
20639;SDS011;10479;53.524;9.846;2022-10-31T11:53:54;61.17;;;22.50;;
20639;SDS011;10479;53.524;9.846;2022-10-31T11:56:41;56.08;;;23.73;;
20639;SDS011;10479;53.524;9.846;2022-10-31T11:59:15;58.35;;;23.02;;
20639;SDS011;10479;53.524;9.846;2022-10-31T12:02:14;46.13;;;19.80;;
20639;SDS011;10479;53.524;9.846;2022-10-31T12:05:04;44.83;;;19.52;;
20639;SDS011;10479;53.524;9.846;2022-10-31T12:07:53;39.63;;;18.77;;
20639;SDS011;10479;53.524;9.846;2022-10-31T12:11:02;44.85;;;20.00;;
20639;SDS011;10479;53.524;9.846;2022-10-31T12:19:50;28.35;;;15.30;;
20639;SDS011;10479;53.524;9.846;2022-10-31T12:22:54;35.92;;;15.95;;
20639;SDS011;10479;53.524;9.846;2022-10-31T12:25:55;49.30;;;21.83;;
20639;SDS011;10479;53.524;9.846;2022-10-31T12:28:55;60.43;;;24.03;;
20639;SDS011;10479;53.524;9.846;2022-10-31T12:32:17;55.30;;;22.83;;
20639;SDS011;10479;53.524;9.846;2022-10-31T12:35:17;66.18;;;27.80;;
20639;SDS011;10479;53.524;9.846;2022-10-31T12:43:52;63.17;;;26.17;;
20639;SDS011;10479;53.524;9.846;2022-10-31T12:47:09;66.72;;;25.95;;
20639;SDS011;10479;53.524;9.846;2022-10-31T12:49:58;70.95;;;25.92;;
20639;SDS011;10479;53.524;9.846;2022-10-31T12:56:12;68.03;;;26.63;;
20639;SDS011;10479;53.524;9.846;2022-10-31T12:59:08;61.20;;;27.25;;
20639;SDS011;10479;53.524;9.846;2022-10-31T13:08:40;58.35;;;25.58;;
20639;SDS011;10479;53.524;9.846;2022-10-31T13:12:01;67.82;;;29.20;;
20639;SDS011;10479;53.524;9.846;2022-10-31T13:14:51;63.47;;;27.48;;
20639;SDS011;10479;53.524;9.846;2022-10-31T13:17:35;72.57;;;30.13;;
20639;SDS011;10479;53.524;9.846;2022-10-31T13:20:29;64.50;;;29.38;;
20639;SDS011;10479;53.524;9.846;2022-10-31T13:23:26;55.72;;;26.90;;
20639;SDS011;10479;53.524;9.846;2022-10-31T13:26:15;57.03;;;25.13;;
20639;SDS011;10479;53.524;9.846;2022-10-31T13:31:54;53.22;;;23.67;;
20639;SDS011;10479;53.524;9.846;2022-10-31T13:34:40;48.08;;;22.60;;
20639;SDS011;10479;53.524;9.846;2022-10-31T13:37:34;52.65;;;24.25;;
20639;SDS011;10479;53.524;9.846;2022-10-31T13:54:51;31.45;;;16.27;;
20639;SDS011;10479;53.524;9.846;2022-10-31T13:58:03;32.22;;;16.27;;
20639;SDS011;10479;53.524;9.846;2022-10-31T14:00:39;28.08;;;14.88;;
20639;SDS011;10479;53.524;9.846;2022-10-31T14:03:24;26.88;;;14.38;;
20639;SDS011;10479;53.524;9.846;2022-10-31T14:06:10;33.75;;;15.10;;
20639;SDS011;10479;53.524;9.846;2022-10-31T14:08:56;29.92;;;14.18;;
20639;SDS011;10479;53.524;9.846;2022-10-31T14:11:41;27.35;;;14.02;;
20639;SDS011;10479;53.524;9.846;2022-10-31T14:14:32;25.25;;;13.55;;
20639;SDS011;10479;53.524;9.846;2022-10-31T14:22:55;23.02;;;12.20;;
20639;SDS011;10479;53.524;9.846;2022-10-31T14:25:41;25.52;;;11.57;;
20639;SDS011;10479;53.524;9.846;2022-10-31T14:28:34;21.55;;;10.68;;
20639;SDS011;10479;53.524;9.846;2022-10-31T14:31:26;27.77;;;12.00;;
20639;SDS011;10479;53.524;9.846;2022-10-31T14:40:33;26.25;;;10.57;;
20639;SDS011;10479;53.524;9.846;2022-10-31T14:52:23;25.67;;;12.88;;
20639;SDS011;10479;53.524;9.846;2022-10-31T14:55:10;35.55;;;15.40;;
20639;SDS011;10479;53.524;9.846;2022-10-31T14:57:59;27.77;;;13.82;;
20639;SDS011;10479;53.524;9.846;2022-10-31T15:00:46;27.25;;;14.77;;
20639;SDS011;10479;53.524;9.846;2022-10-31T15:03:33;26.50;;;13.35;;
20639;SDS011;10479;53.524;9.846;2022-10-31T15:06:15;27.63;;;13.30;;
20639;SDS011;10479;53.524;9.846;2022-10-31T15:09:03;26.33;;;13.15;;
20639;SDS011;10479;53.524;9.846;2022-10-31T15:11:45;34.92;;;16.38;;
20639;SDS011;10479;53.524;9.846;2022-10-31T15:14:31;27.27;;;13.90;;
20639;SDS011;10479;53.524;9.846;2022-10-31T15:17:12;32.08;;;14.38;;
20639;SDS011;10479;53.524;9.846;2022-10-31T15:19:42;26.27;;;13.85;;
20639;SDS011;10479;53.524;9.846;2022-10-31T15:22:28;30.73;;;13.85;;
20639;SDS011;10479;53.524;9.846;2022-10-31T15:25:22;31.50;;;14.82;;
20639;SDS011;10479;53.524;9.846;2022-10-31T15:28:12;33.88;;;14.75;;
20639;SDS011;10479;53.524;9.846;2022-10-31T15:30:59;32.05;;;15.30;;
20639;SDS011;10479;53.524;9.846;2022-10-31T15:33:46;32.38;;;16.35;;
20639;SDS011;10479;53.524;9.846;2022-10-31T15:36:33;33.75;;;15.32;;
20639;SDS011;10479;53.524;9.846;2022-10-31T15:39:19;33.38;;;14.70;;
20639;SDS011;10479;53.524;9.846;2022-10-31T15:41:56;32.90;;;15.77;;
20639;SDS011;10479;53.524;9.846;2022-10-31T15:44:43;37.63;;;15.75;;
20639;SDS011;10479;53.524;9.846;2022-10-31T15:47:29;38.13;;;17.33;;
20639;SDS011;10479;53.524;9.846;2022-10-31T15:50:24;37.15;;;17.25;;
20639;SDS011;10479;53.524;9.846;2022-10-31T15:53:35;40.78;;;17.80;;
20639;SDS011;10479;53.524;9.846;2022-10-31T15:56:27;38.67;;;17.43;;
20639;SDS011;10479;53.524;9.846;2022-10-31T15:59:18;41.70;;;17.00;;
20639;SDS011;10479;53.524;9.846;2022-10-31T16:02:07;39.20;;;16.52;;
20639;SDS011;10479;53.524;9.846;2022-10-31T16:04:59;40.67;;;15.98;;
20639;SDS011;10479;53.524;9.846;2022-10-31T16:07:49;43.50;;;19.15;;
20639;SDS011;10479;53.524;9.846;2022-10-31T16:10:35;42.33;;;17.48;;
20639;SDS011;10479;53.524;9.846;2022-10-31T16:13:12;47.47;;;17.67;;
20639;SDS011;10479;53.524;9.846;2022-10-31T16:16:03;43.88;;;18.63;;
20639;SDS011;10479;53.524;9.846;2022-10-31T16:18:50;46.42;;;19.33;;
20639;SDS011;10479;53.524;9.846;2022-10-31T16:21:38;48.33;;;19.48;;
20639;SDS011;10479;53.524;9.846;2022-10-31T16:24:27;42.50;;;17.08;;
20639;SDS011;10479;53.524;9.846;2022-10-31T16:27:19;37.28;;;17.00;;
20639;SDS011;10479;53.524;9.846;2022-10-31T16:30:01;45.28;;;17.17;;
20639;SDS011;10479;53.524;9.846;2022-10-31T16:32:55;36.83;;;15.45;;
20639;SDS011;10479;53.524;9.846;2022-10-31T16:35:43;40.90;;;16.33;;
20639;SDS011;10479;53.524;9.846;2022-10-31T16:38:24;40.78;;;15.40;;
20639;SDS011;10479;53.524;9.846;2022-10-31T16:41:09;40.30;;;16.63;;
20639;SDS011;10479;53.524;9.846;2022-10-31T16:43:53;42.05;;;16.88;;
20639;SDS011;10479;53.524;9.846;2022-10-31T16:46:25;38.75;;;15.07;;
20639;SDS011;10479;53.524;9.846;2022-10-31T16:48:54;45.80;;;17.25;;
20639;SDS011;10479;53.524;9.846;2022-10-31T16:51:28;37.17;;;16.02;;
20639;SDS011;10479;53.524;9.846;2022-10-31T16:54:14;44.50;;;17.58;;
20639;SDS011;10479;53.524;9.846;2022-10-31T16:56:59;42.13;;;16.60;;
20639;SDS011;10479;53.524;9.846;2022-10-31T16:59:34;47.05;;;18.05;;
20639;SDS011;10479;53.524;9.846;2022-10-31T17:02:19;41.92;;;16.25;;
20639;SDS011;10479;53.524;9.846;2022-10-31T17:05:05;51.17;;;17.60;;
20639;SDS011;10479;53.524;9.846;2022-10-31T17:07:55;42.75;;;15.98;;
20639;SDS011;10479;53.524;9.846;2022-10-31T17:10:41;38.28;;;16.60;;
20639;SDS011;10479;53.524;9.846;2022-10-31T17:13:29;45.85;;;17.60;;
20639;SDS011;10479;53.524;9.846;2022-10-31T17:16:02;40.92;;;17.13;;
20639;SDS011;10479;53.524;9.846;2022-10-31T17:18:48;47.75;;;17.67;;
20639;SDS011;10479;53.524;9.846;2022-10-31T17:21:23;49.28;;;18.05;;
20639;SDS011;10479;53.524;9.846;2022-10-31T17:23:57;39.38;;;16.73;;
20639;SDS011;10479;53.524;9.846;2022-10-31T17:26:43;49.83;;;17.55;;
20639;SDS011;10479;53.524;9.846;2022-10-31T17:29:28;47.03;;;18.08;;
20639;SDS011;10479;53.524;9.846;2022-10-31T17:31:56;45.35;;;18.00;;
20639;SDS011;10479;53.524;9.846;2022-10-31T17:34:35;46.83;;;18.33;;
20639;SDS011;10479;53.524;9.846;2022-10-31T17:37:20;51.25;;;20.73;;
20639;SDS011;10479;53.524;9.846;2022-10-31T17:40:06;45.03;;;18.27;;
20639;SDS011;10479;53.524;9.846;2022-10-31T17:42:54;54.20;;;19.50;;
20639;SDS011;10479;53.524;9.846;2022-10-31T17:45:39;45.45;;;18.70;;
20639;SDS011;10479;53.524;9.846;2022-10-31T17:48:21;44.72;;;18.70;;
20639;SDS011;10479;53.524;9.846;2022-10-31T17:51:01;51.28;;;18.48;;
20639;SDS011;10479;53.524;9.846;2022-10-31T17:53:48;53.10;;;20.05;;
20639;SDS011;10479;53.524;9.846;2022-10-31T17:56:27;53.03;;;21.40;;
20639;SDS011;10479;53.524;9.846;2022-10-31T17:59:13;48.55;;;18.65;;
20639;SDS011;10479;53.524;9.846;2022-10-31T18:01:58;48.45;;;18.75;;
20639;SDS011;10479;53.524;9.846;2022-10-31T18:04:44;48.78;;;18.55;;
20639;SDS011;10479;53.524;9.846;2022-10-31T18:07:33;48.70;;;19.10;;
20639;SDS011;10479;53.524;9.846;2022-10-31T18:10:18;49.92;;;19.15;;